createdAt,value
2023-03-19T00:00:47.482Z,80.47
2023-03-19T00:03:16.628Z,80.86
2023-03-19T00:05:54.064Z,80.99
2023-03-19T00:08:22.999Z,79.82
2023-03-19T00:10:51.804Z,79.67
2023-03-19T00:13:21.038Z,79.63
2023-03-19T00:15:50.058Z,80.47
2023-03-19T00:18:18.973Z,80.70
2023-03-19T00:20:47.814Z,82.75
2023-03-19T00:23:18.118Z,81.12
2023-03-19T00:25:46.695Z,80.91
2023-03-19T00:28:15.564Z,82.98
2023-03-19T00:30:45.741Z,82.21
2023-03-19T00:33:14.984Z,82.04
2023-03-19T00:35:43.825Z,83.71
2023-03-19T00:38:12.689Z,84.63
2023-03-19T00:40:42.681Z,83.92
2023-03-19T00:43:11.631Z,84.92
2023-03-19T00:45:41.890Z,82.63
2023-03-19T00:48:10.542Z,83.32
2023-03-19T00:50:39.436Z,85.43
2023-03-19T00:53:08.372Z,83.22
2023-03-19T00:55:37.663Z,85.04
2023-03-19T00:58:08.354Z,85.08
2023-03-19T01:00:38.303Z,86.00
2023-03-19T01:03:07.806Z,85.42
2023-03-19T01:08:05.951Z,85.89
2023-03-19T01:10:35.719Z,86.71
2023-03-19T01:13:08.517Z,87.29
2023-03-19T01:15:38.030Z,88.09
2023-03-19T01:18:07.741Z,88.97
2023-03-19T01:20:37.325Z,88.65
2023-03-19T01:23:07.252Z,89.63
2023-03-19T01:25:36.420Z,89.00
2023-03-19T01:28:08.865Z,89.06
2023-03-19T01:30:41.195Z,91.00
2023-03-19T01:33:10.133Z,92.98
2023-03-19T01:35:44.568Z,92.73
2023-03-19T01:38:13.604Z,92.95
2023-03-19T01:40:46.107Z,92.44
2023-03-19T01:43:19.752Z,92.63
2023-03-19T01:45:54.380Z,93.36
2023-03-19T01:48:47.730Z,91.03
2023-03-19T01:51:22.084Z,91.38
2023-03-19T01:54:08.039Z,91.82
2023-03-19T01:56:52.587Z,94.13
2023-03-19T01:59:54.669Z,94.06
2023-03-19T02:02:52.452Z,95.00
2023-03-19T02:05:42.938Z,96.26
2023-03-19T02:08:16.298Z,96.35
2023-03-19T02:10:46.607Z,95.91
2023-03-19T02:13:15.787Z,96.05
2023-03-19T02:15:46.406Z,95.64
2023-03-19T02:18:16.285Z,96.52
2023-03-19T02:20:52.046Z,96.60
2023-03-19T02:23:28.569Z,96.17
2023-03-19T02:26:07.992Z,95.80
2023-03-19T02:28:40.027Z,96.16
2023-03-19T02:31:10.184Z,94.85
2023-03-19T02:33:39.321Z,95.95
2023-03-19T02:36:12.857Z,95.58
2023-03-19T02:38:42.864Z,95.18
2023-03-19T02:41:13.371Z,94.54
2023-03-19T02:43:42.716Z,95.40
2023-03-19T02:46:13.804Z,96.27
2023-03-19T02:48:44.016Z,96.36
2023-03-19T02:51:13.616Z,95.58
2023-03-19T02:53:42.585Z,96.35
2023-03-19T02:56:13.066Z,95.97
2023-03-19T02:58:42.089Z,95.64
2023-03-19T03:01:11.743Z,97.06
2023-03-19T03:03:40.883Z,96.74
2023-03-19T03:06:10.234Z,96.74
2023-03-19T03:08:39.326Z,96.54
2023-03-19T03:11:08.185Z,96.87
2023-03-19T03:13:38.194Z,97.96
2023-03-19T03:16:07.028Z,97.13
2023-03-19T03:18:36.282Z,97.67
2023-03-19T03:21:05.280Z,96.99
2023-03-19T03:23:34.276Z,96.24
2023-03-19T03:26:04.136Z,97.72
2023-03-19T03:28:32.697Z,98.28
2023-03-19T03:31:03.875Z,97.86
2023-03-19T03:33:33.273Z,96.74
2023-03-19T03:36:02.310Z,97.32
2023-03-19T03:38:32.776Z,97.57
2023-03-19T03:41:01.582Z,96.70
2023-03-19T03:43:30.291Z,97.99
2023-03-19T03:46:00.215Z,97.37
2023-03-19T03:48:30.955Z,96.75
2023-03-19T03:50:59.934Z,96.93
2023-03-19T03:53:30.501Z,96.66
2023-03-19T03:55:59.526Z,96.90
2023-03-19T03:58:30.181Z,97.10
2023-03-19T04:00:59.132Z,96.84
2023-03-19T04:03:28.211Z,96.90
2023-03-19T04:05:58.695Z,97.00
2023-03-19T04:08:27.810Z,98.57
2023-03-19T04:10:56.432Z,97.23
2023-03-19T04:13:25.677Z,97.90
2023-03-19T04:15:56.252Z,98.05
2023-03-19T04:18:26.045Z,99.20
2023-03-19T04:20:55.077Z,98.61
2023-03-19T04:23:25.478Z,100.00
2023-03-19T04:25:54.049Z,97.93
2023-03-19T04:28:23.353Z,97.89
2023-03-19T04:30:52.439Z,97.09
2023-03-19T04:33:22.001Z,98.22
2023-03-19T04:35:51.144Z,98.67
2023-03-19T04:38:20.363Z,100.00
2023-03-19T04:40:50.691Z,99.62
2023-03-19T04:43:20.808Z,99.09
2023-03-19T04:45:49.912Z,100.00
2023-03-19T04:48:19.568Z,98.98
2023-03-19T04:50:52.277Z,99.79
2023-03-19T04:53:21.864Z,100.00
2023-03-19T04:55:52.197Z,99.80
2023-03-19T04:58:22.686Z,99.22
2023-03-19T05:01:00.817Z,100.00
2023-03-19T05:03:50.003Z,99.70
2023-03-19T05:06:20.105Z,100.00
2023-03-19T05:08:49.071Z,100.00
2023-03-19T05:11:21.572Z,100.00
2023-03-19T05:14:01.490Z,99.33
2023-03-19T05:16:36.727Z,100.00
2023-03-19T05:19:05.673Z,100.00
2023-03-19T05:21:35.212Z,100.00
2023-03-19T05:24:04.671Z,100.00
2023-03-19T05:26:38.925Z,100.00
2023-03-19T05:29:22.213Z,100.00
2023-03-19T05:32:20.589Z,100.00
2023-03-19T05:34:49.765Z,100.00
2023-03-19T05:37:19.553Z,100.00
2023-03-19T05:39:54.935Z,100.00
2023-03-19T05:42:25.983Z,100.00
2023-03-19T05:44:57.929Z,100.00
2023-03-19T05:47:38.024Z,100.00
2023-03-19T05:50:07.685Z,100.00
2023-03-19T05:52:37.002Z,98.93
2023-03-19T05:55:07.301Z,97.29
2023-03-19T05:57:49.744Z,96.83
2023-03-19T06:00:22.707Z,96.25
2023-03-19T06:02:53.321Z,96.89
2023-03-19T06:05:52.012Z,94.75
2023-03-19T06:08:38.410Z,96.07
2023-03-19T06:11:24.199Z,94.13
2023-03-19T06:14:09.158Z,92.00
2023-03-19T06:16:42.011Z,89.46
2023-03-19T06:19:11.408Z,89.05
2023-03-19T06:21:40.924Z,87.93
2023-03-19T06:24:10.275Z,89.10
2023-03-19T06:26:40.494Z,89.66
2023-03-19T06:29:17.718Z,89.16
2023-03-19T06:31:50.161Z,87.82
2023-03-19T06:34:36.915Z,85.74
2023-03-19T06:37:05.903Z,84.24
2023-03-19T06:39:35.081Z,83.04
2023-03-19T06:42:04.125Z,82.80
2023-03-19T06:44:34.501Z,80.02
2023-03-19T06:47:03.218Z,80.76
2023-03-19T06:49:32.607Z,80.25
2023-03-19T06:52:01.515Z,78.70
2023-03-19T06:54:30.700Z,75.83
2023-03-19T06:57:00.559Z,74.39
2023-03-19T06:59:29.394Z,73.18
2023-03-19T07:01:59.759Z,69.82
2023-03-19T07:04:28.344Z,70.83
2023-03-19T07:06:57.370Z,68.52
2023-03-19T07:09:27.440Z,67.09
2023-03-19T07:11:56.572Z,70.11
2023-03-19T07:14:25.900Z,70.43
2023-03-19T07:16:54.490Z,68.52
2023-03-19T07:19:24.776Z,67.43
2023-03-19T07:21:53.540Z,66.76
2023-03-19T07:24:22.516Z,66.30
2023-03-19T07:26:51.767Z,64.59
2023-03-19T07:29:20.885Z,59.70
2023-03-19T07:31:50.003Z,58.76
2023-03-19T07:34:18.994Z,56.88
2023-03-19T07:36:49.316Z,52.44
2023-03-19T07:39:18.011Z,52.90
2023-03-19T07:41:48.694Z,52.79
2023-03-19T07:44:18.414Z,51.31
2023-03-19T07:46:47.269Z,48.19
2023-03-19T07:49:16.383Z,49.04
2023-03-19T07:51:45.359Z,44.99
2023-03-19T07:54:15.709Z,42.13
2023-03-19T07:56:44.725Z,40.43
2023-03-19T07:59:13.668Z,37.81
2023-03-19T08:01:42.114Z,39.81
2023-03-19T08:04:11.147Z,39.23
2023-03-19T08:06:40.195Z,36.90
2023-03-19T08:09:09.480Z,39.04
2023-03-19T08:11:39.785Z,39.01
2023-03-19T08:14:08.742Z,38.50
2023-03-19T08:16:37.284Z,36.79
2023-03-19T08:19:06.164Z,36.58
2023-03-19T08:21:35.026Z,34.39
2023-03-19T08:24:05.108Z,33.47
2023-03-19T08:26:34.186Z,33.29
2023-03-19T08:29:04.880Z,33.39
2023-03-19T08:31:33.483Z,33.29
2023-03-19T08:34:06.362Z,34.00
2023-03-19T08:36:35.464Z,37.41
2023-03-19T08:39:04.649Z,37.26
2023-03-19T08:41:33.556Z,37.16
2023-03-19T08:44:02.711Z,38.46
2023-03-19T08:46:33.676Z,38.32
2023-03-19T08:49:02.721Z,38.78
2023-03-19T08:51:32.074Z,39.62
2023-03-19T08:54:01.015Z,39.39
2023-03-19T08:56:30.161Z,38.17
2023-03-19T08:58:59.272Z,36.10
2023-03-19T09:01:28.008Z,34.92
2023-03-19T09:04:00.746Z,34.80
2023-03-19T09:06:29.975Z,34.21
2023-03-19T09:08:59.036Z,34.74
2023-03-19T09:11:28.547Z,34.66
2023-03-19T09:13:57.219Z,33.65
2023-03-19T09:16:27.054Z,34.08
2023-03-19T09:18:59.215Z,33.20
2023-03-19T09:21:31.730Z,31.39
2023-03-19T09:24:00.910Z,32.88
2023-03-19T09:26:30.036Z,32.25
2023-03-19T09:28:59.216Z,32.64
2023-03-19T09:31:29.648Z,30.77
2023-03-19T09:33:59.028Z,28.26
2023-03-19T09:36:28.023Z,28.69
2023-03-19T09:38:58.493Z,28.88
2023-03-19T09:41:33.261Z,27.84
2023-03-19T09:44:03.745Z,27.65
2023-03-19T09:46:40.373Z,29.99
2023-03-19T09:49:16.401Z,31.15
2023-03-19T09:51:48.724Z,30.74
2023-03-19T09:54:27.500Z,29.76
2023-03-19T09:56:56.471Z,27.69
2023-03-19T09:59:27.160Z,28.42
2023-03-19T10:02:01.346Z,27.60
2023-03-19T10:04:42.645Z,28.14
2023-03-19T10:07:23.931Z,32.10
2023-03-19T10:10:05.591Z,31.11
2023-03-19T10:12:45.625Z,29.54
2023-03-19T10:15:23.851Z,30.37
2023-03-19T10:17:59.358Z,30.64
2023-03-19T10:20:48.932Z,32.29
2023-03-19T10:23:33.841Z,32.62
2023-03-19T10:26:07.453Z,32.33
2023-03-19T10:28:37.985Z,33.25
2023-03-19T10:31:20.385Z,32.75
2023-03-19T10:33:54.746Z,29.59
2023-03-19T10:36:29.276Z,25.60
2023-03-19T10:38:58.470Z,24.82
2023-03-19T10:41:39.879Z,24.13
2023-03-19T10:44:13.704Z,24.82
2023-03-19T10:46:43.052Z,25.63
2023-03-19T10:49:15.470Z,23.43
2023-03-19T10:51:45.804Z,24.05
2023-03-19T10:54:22.725Z,22.82
2023-03-19T10:56:56.474Z,21.16
2023-03-19T10:59:30.147Z,25.67
2023-03-19T11:02:00.105Z,26.70
2023-03-19T11:04:30.043Z,28.74
2023-03-19T11:07:03.521Z,31.55
2023-03-19T11:09:35.971Z,28.94
2023-03-19T11:12:18.825Z,27.20
2023-03-19T11:14:49.039Z,27.13
2023-03-19T11:17:22.895Z,28.86
2023-03-19T11:19:53.689Z,29.67
2023-03-19T11:22:24.786Z,26.99
2023-03-19T11:24:55.853Z,27.67
2023-03-19T11:27:35.068Z,27.75
2023-03-19T11:30:05.375Z,30.34
2023-03-19T11:32:50.938Z,30.69
2023-03-19T11:35:22.626Z,29.42
2023-03-19T11:37:56.331Z,29.44
2023-03-19T11:40:43.290Z,32.37
2023-03-19T11:43:36.926Z,31.83
2023-03-19T11:46:12.976Z,30.15
2023-03-19T11:48:54.217Z,29.31
2023-03-19T11:51:28.073Z,29.46
2023-03-19T11:54:02.541Z,28.51
2023-03-19T11:56:36.382Z,33.06
2023-03-19T11:59:23.981Z,34.08
2023-03-19T12:02:23.083Z,35.12
2023-03-19T12:05:05.104Z,34.14
2023-03-19T12:07:37.582Z,30.84
2023-03-19T12:10:27.911Z,29.62
2023-03-19T12:12:58.314Z,32.47
2023-03-19T12:15:31.710Z,33.06
2023-03-19T12:18:06.828Z,34.89
2023-03-19T12:20:48.106Z,36.87
2023-03-19T12:23:35.741Z,33.75
2023-03-19T12:26:06.837Z,31.93
2023-03-19T12:28:39.408Z,29.51
2023-03-19T12:31:36.867Z,30.88
2023-03-19T12:34:17.983Z,30.65
2023-03-19T12:36:52.099Z,28.48
2023-03-19T12:39:25.350Z,33.56
2023-03-19T12:41:56.416Z,33.36
2023-03-19T12:44:29.163Z,32.53
2023-03-19T12:47:04.512Z,33.60
2023-03-19T12:49:37.692Z,32.92
2023-03-19T12:52:14.057Z,32.85
2023-03-19T12:54:45.917Z,32.44
2023-03-19T12:57:20.104Z,32.98
2023-03-19T12:59:54.647Z,34.43
2023-03-19T13:02:30.502Z,34.28
2023-03-19T13:05:04.100Z,33.71
2023-03-19T13:07:37.715Z,35.47
2023-03-19T13:10:11.847Z,35.58
2023-03-19T13:12:41.332Z,35.07
2023-03-19T13:15:13.374Z,35.29
2023-03-19T13:17:50.943Z,34.44
2023-03-19T13:20:23.828Z,31.70
2023-03-19T13:22:56.811Z,32.24
2023-03-19T13:25:28.739Z,32.81
2023-03-19T13:27:57.920Z,34.08
2023-03-19T13:30:27.697Z,34.84
2023-03-19T13:33:05.777Z,36.08
2023-03-19T13:35:40.872Z,35.47
2023-03-19T13:38:19.115Z,36.25
2023-03-19T13:40:50.348Z,36.61
2023-03-19T13:43:44.317Z,36.66
2023-03-19T13:46:39.249Z,36.35
2023-03-19T13:49:26.790Z,39.12
2023-03-19T13:51:57.555Z,38.83
2023-03-19T13:54:40.322Z,38.37
2023-03-19T13:57:36.282Z,39.13
2023-03-19T14:00:43.008Z,40.44
2023-03-19T14:03:21.976Z,41.16
2023-03-19T14:05:54.134Z,40.54
2023-03-19T14:08:26.079Z,39.11
2023-03-19T14:10:57.091Z,39.89
2023-03-19T14:13:32.133Z,38.35
2023-03-19T14:16:09.896Z,39.01
2023-03-19T14:18:42.534Z,37.88
2023-03-19T14:21:21.815Z,37.12
2023-03-19T14:23:57.742Z,36.92
2023-03-19T14:26:30.201Z,36.95
2023-03-19T14:29:01.205Z,37.59
2023-03-19T14:31:34.891Z,37.94
2023-03-19T14:34:08.579Z,37.98
2023-03-19T14:36:43.544Z,38.09
2023-03-19T14:39:21.940Z,40.33
2023-03-19T14:41:53.326Z,40.11
2023-03-19T14:44:58.214Z,39.01
2023-03-19T14:47:42.474Z,39.14
2023-03-19T14:50:41.720Z,38.36
2023-03-19T14:53:17.217Z,38.57
2023-03-19T14:55:51.512Z,38.65
2023-03-19T14:58:21.479Z,37.12
2023-03-19T15:00:51.769Z,36.53
2023-03-19T15:03:25.925Z,35.84
2023-03-19T15:05:58.969Z,36.60
2023-03-19T15:08:32.330Z,36.92
2023-03-19T15:11:13.287Z,36.28
2023-03-19T15:13:52.345Z,36.75
2023-03-19T15:16:34.468Z,36.36
2023-03-19T15:19:03.714Z,36.60
2023-03-19T15:21:32.591Z,37.37
2023-03-19T15:24:04.792Z,37.57
2023-03-19T15:26:35.199Z,38.90
2023-03-19T15:29:04.645Z,39.07
2023-03-19T15:31:52.868Z,40.20
2023-03-19T15:34:31.770Z,40.05
2023-03-19T15:37:02.955Z,40.48
2023-03-19T15:39:37.642Z,40.42
2023-03-19T15:42:07.298Z,40.41
2023-03-19T15:44:38.499Z,40.71
2023-03-19T15:47:09.877Z,40.92
2023-03-19T15:49:40.428Z,40.70
2023-03-19T15:52:12.519Z,40.75
2023-03-19T15:54:43.386Z,41.08
2023-03-19T15:57:14.389Z,41.18
2023-03-19T15:59:43.518Z,40.88
2023-03-19T16:02:18.184Z,40.68
2023-03-19T16:05:13.966Z,40.79
2023-03-19T16:07:43.003Z,41.33
2023-03-19T16:10:33.697Z,41.35
2023-03-19T16:13:05.771Z,41.44
2023-03-19T16:15:38.870Z,42.72
2023-03-19T16:18:27.355Z,43.00
2023-03-19T16:21:15.278Z,43.04
2023-03-19T16:23:45.746Z,43.95
2023-03-19T16:26:22.635Z,43.72
2023-03-19T16:28:59.802Z,44.45
2023-03-19T16:31:32.239Z,44.45
2023-03-19T16:34:01.599Z,44.74
2023-03-19T16:36:33.061Z,44.66
2023-03-19T16:39:21.714Z,45.52
2023-03-19T16:42:15.906Z,45.94
2023-03-19T16:44:45.719Z,46.87
2023-03-19T16:47:16.161Z,46.28
2023-03-19T16:49:47.763Z,46.21
2023-03-19T16:52:18.970Z,45.86
2023-03-19T16:54:48.052Z,46.19
2023-03-19T16:57:18.965Z,46.80
2023-03-19T16:59:48.451Z,46.99
2023-03-19T17:02:18.651Z,47.92
2023-03-19T17:04:47.668Z,47.71
2023-03-19T17:07:16.630Z,48.29
2023-03-19T17:09:45.510Z,48.23
2023-03-19T17:12:17.618Z,48.62
2023-03-19T17:14:47.290Z,48.41
2023-03-19T17:17:19.601Z,48.46
2023-03-19T17:19:48.899Z,48.91
2023-03-19T17:22:18.204Z,49.23
2023-03-19T17:24:47.358Z,49.06
2023-03-19T17:27:17.681Z,49.70
2023-03-19T17:29:46.400Z,50.03
2023-03-19T17:32:18.859Z,49.94
2023-03-19T17:34:47.430Z,49.90
2023-03-19T17:37:16.384Z,50.60
2023-03-19T17:39:46.057Z,51.08
2023-03-19T17:42:22.679Z,51.17
2023-03-19T17:44:52.277Z,51.22
2023-03-19T17:47:21.440Z,51.59
2023-03-19T17:49:50.120Z,51.57
2023-03-19T17:52:20.170Z,51.87
2023-03-19T17:54:49.127Z,51.59
2023-03-19T17:57:19.495Z,51.84
2023-03-19T17:59:48.180Z,51.87
2023-03-19T18:02:25.693Z,51.97
2023-03-19T18:04:54.777Z,52.10
2023-03-19T18:07:23.694Z,52.94
2023-03-19T18:09:52.865Z,53.02
2023-03-19T18:12:23.203Z,52.99
2023-03-19T18:14:52.956Z,52.73
2023-03-19T18:17:21.937Z,53.38
2023-03-19T18:19:52.379Z,53.37
2023-03-19T18:22:21.775Z,53.17
2023-03-19T18:24:50.894Z,53.58
2023-03-19T18:27:19.829Z,54.07
2023-03-19T18:29:52.598Z,54.05
2023-03-19T18:32:26.872Z,54.19
2023-03-19T18:34:55.466Z,53.86
2023-03-19T18:37:24.617Z,54.33
2023-03-19T18:39:53.745Z,54.43
2023-03-19T18:42:23.643Z,54.25
2023-03-19T18:44:54.123Z,54.24
2023-03-19T18:47:22.881Z,54.17
2023-03-19T18:49:54.093Z,54.21
2023-03-19T18:52:23.084Z,54.04
2023-03-19T18:54:52.282Z,54.28
2023-03-19T18:57:21.353Z,54.49
2023-03-19T18:59:50.336Z,54.68
2023-03-19T19:02:32.542Z,55.54
2023-03-19T19:05:01.527Z,55.56
2023-03-19T19:07:30.438Z,55.93
2023-03-19T19:09:59.362Z,55.75
2023-03-19T19:12:28.457Z,56.05
2023-03-19T19:14:58.809Z,56.51
2023-03-19T19:17:29.830Z,56.75
2023-03-19T19:19:58.986Z,57.05
2023-03-19T19:22:29.841Z,57.42
2023-03-19T19:24:58.916Z,57.95
2023-03-19T19:27:28.011Z,57.56
2023-03-19T19:29:57.227Z,58.25
2023-03-19T19:32:29.737Z,58.81
2023-03-19T19:34:58.360Z,58.71
2023-03-19T19:37:27.334Z,58.81
2023-03-19T19:39:56.607Z,58.87
2023-03-19T19:42:26.133Z,58.74
2023-03-19T19:44:58.872Z,58.72
2023-03-19T19:47:29.576Z,59.54
2023-03-19T19:49:58.225Z,59.97
2023-03-19T19:52:27.241Z,60.73
2023-03-19T19:54:56.247Z,61.27
2023-03-19T19:57:25.554Z,60.98
2023-03-19T19:59:55.538Z,61.36
2023-03-19T20:02:25.988Z,60.77
2023-03-19T20:04:56.092Z,61.60
2023-03-19T20:07:25.134Z,63.32
2023-03-19T20:09:54.157Z,64.19
2023-03-19T20:12:24.606Z,64.36
2023-03-19T20:14:54.218Z,64.70
2023-03-19T20:17:23.936Z,64.28
2023-03-19T20:19:52.830Z,64.42
2023-03-19T20:22:23.283Z,62.29
2023-03-19T20:24:52.386Z,63.54
2023-03-19T20:27:23.567Z,64.65
2023-03-19T20:29:54.279Z,65.93
2023-03-19T20:32:27.596Z,66.72
2023-03-19T20:34:56.315Z,66.59
2023-03-19T20:37:26.704Z,67.86
2023-03-19T20:39:55.989Z,67.92
2023-03-19T20:42:27.125Z,67.07
2023-03-19T20:44:58.621Z,68.37
2023-03-19T20:47:27.855Z,66.65
2023-03-19T20:49:56.436Z,68.37
2023-03-19T20:52:26.791Z,67.60
2023-03-19T20:54:55.727Z,68.01
2023-03-19T20:57:29.406Z,67.98
2023-03-19T20:59:59.345Z,66.14
2023-03-19T21:02:28.617Z,66.58
2023-03-19T21:04:57.592Z,67.11
2023-03-19T21:07:30.873Z,66.68
2023-03-19T21:10:00.029Z,66.06
2023-03-19T21:12:30.969Z,65.68
2023-03-19T21:15:01.104Z,66.22
2023-03-19T21:17:30.554Z,65.67
2023-03-19T21:19:59.432Z,66.40
2023-03-19T21:22:30.832Z,66.55
2023-03-19T21:25:08.598Z,66.61
2023-03-19T21:27:38.523Z,66.03
2023-03-19T21:30:08.772Z,66.67
2023-03-19T21:32:38.095Z,67.23
2023-03-19T21:35:07.694Z,68.43
2023-03-19T21:37:39.542Z,68.11
2023-03-19T21:40:15.194Z,67.71
2023-03-19T21:42:44.329Z,67.57
2023-03-19T21:45:18.844Z,67.26
2023-03-19T21:47:47.906Z,68.42
2023-03-19T21:50:18.475Z,68.51
2023-03-19T21:52:58.800Z,69.21
2023-03-19T21:55:29.867Z,68.84
2023-03-19T21:57:59.277Z,68.31
2023-03-19T22:00:28.192Z,68.82
2023-03-19T22:02:57.179Z,69.29
2023-03-19T22:05:27.745Z,69.28
2023-03-19T22:07:58.007Z,69.10
2023-03-19T22:10:29.734Z,70.29
2023-03-19T22:12:58.700Z,70.48
2023-03-19T22:15:34.879Z,69.36
2023-03-19T22:18:05.153Z,69.53
2023-03-19T22:20:34.400Z,69.90
2023-03-19T22:23:05.354Z,69.47
2023-03-19T22:25:35.659Z,69.93
2023-03-19T22:28:06.183Z,69.80
2023-03-19T22:30:35.873Z,70.17
2023-03-19T22:33:07.233Z,70.23
2023-03-19T22:35:36.692Z,70.13
2023-03-19T22:38:07.233Z,69.88
2023-03-19T22:40:36.300Z,71.44
2023-03-19T22:43:08.503Z,72.13
2023-03-19T22:45:37.789Z,72.29
2023-03-19T22:48:07.217Z,71.85
2023-03-19T22:50:36.160Z,72.38
2023-03-19T22:53:20.346Z,72.18
2023-03-19T22:55:48.948Z,73.00
2023-03-19T22:58:18.008Z,73.65
2023-03-19T23:00:47.023Z,74.71
2023-03-19T23:03:21.470Z,75.69
2023-03-19T23:05:53.476Z,76.60
2023-03-19T23:08:24.096Z,76.88
2023-03-19T23:10:53.509Z,76.30
2023-03-19T23:13:23.373Z,78.44
2023-03-19T23:15:56.763Z,80.05
2023-03-19T23:18:30.477Z,78.37
2023-03-19T23:20:59.424Z,79.57
2023-03-19T23:23:30.526Z,78.75
2023-03-19T23:25:59.273Z,79.14
2023-03-19T23:28:31.852Z,78.29
2023-03-19T23:31:02.981Z,79.07
2023-03-19T23:33:31.981Z,79.13
2023-03-19T23:36:00.839Z,80.69
2023-03-19T23:38:31.680Z,79.48
2023-03-19T23:41:01.125Z,78.24
2023-03-19T23:43:30.994Z,77.84
2023-03-19T23:46:00.442Z,78.67
2023-03-19T23:48:34.086Z,78.81
2023-03-19T23:51:03.928Z,79.47
2023-03-19T23:53:34.381Z,80.46
2023-03-19T23:56:04.887Z,79.85
2023-03-19T23:58:39.978Z,79.98
